X  Sluiten METAR luchtvaart weer gegevens         EDDE Erfurt
Temperatuur
4°C Temperatuur
0°C Dauwpunt
75% Vochtigheid



Wind
7 KM/U
5 MPH
2 M/S
4 KTS



140°
ZO
Huidig weer

Mostly Clear Grotendeels helder
Luchtdruk 1020 (hPa) - 30.13 (inHg)
Zicht 6 (mijl) - 10 (km)
Vliegveld
Vliegveld code EDDE

Locatie : Erfurt
Afstand: 25 (km)

Metar:
METAR EDDE 271920Z AUTO 14004KT CAVOK 04/M00 Q1019 NOSIG

Tijd: 27.11.2022 20:20 CET